Time;durP1;ratioP1;P1;durP2;ratioP2;P2;SDS_P1;SDS_P2;PMS_P1;PMS_P2;Temp;Humidity;BMP_temperature;BMP_pressure;BME280_temperature;BME280_humidity;BME280_pressure;Samples;Min_cycle;Max_cycle;Signal;HPM_P1;HPM_P2
2022/11/04 00:02:01;;;;;;;4.27;3.63;;;;;;;22.15;60.82;96390.72;5049996;28;20656;-31
2022/11/04 00:04:28;;;;;;;4.23;3.40;;;;;;;22.13;60.77;96397.53;5050788;28;20663;-31
2022/11/04 00:06:55;;;;;;;4.33;3.43;;;;;;;22.22;60.69;96430.88;5052338;28;20193;-31
2022/11/04 00:09:23;;;;;;;4.67;3.30;;;;;;;22.16;60.67;96424.00;5051612;28;20201;-31
2022/11/04 00:14:35;;;;;;;3.70;3.37;;;;;;;22.16;60.63;96421.47;5056093;28;20252;-31
2022/11/04 00:28:51;;;;;;;3.60;3.27;;;;;;;22.21;60.66;96431.75;5046931;28;20559;-31
2022/11/04 00:33:55;;;;;;;3.73;3.37;;;;;;;22.20;60.68;96448.78;5062092;28;20200;-31
2022/11/04 00:36:22;;;;;;;4.07;3.67;;;;;;;22.19;60.92;96454.75;5055749;28;20746;-31
2022/11/04 00:38:49;;;;;;;3.63;3.33;;;;;;;22.20;60.91;96461.56;5055829;28;20201;-31
2022/11/04 00:41:29;;;;;;;3.80;3.40;;;;;;;22.16;60.78;96454.72;5055328;28;20220;-31
2022/11/04 00:44:01;;;;;;;3.67;3.37;;;;;;;22.17;60.78;96461.53;5051373;28;20276;-31
2022/11/04 00:46:29;;;;;;;3.63;3.30;;;;;;;22.12;60.88;96459.78;5068634;28;20200;-31
2022/11/04 00:48:55;;;;;;;3.40;3.10;;;;;;;22.14;60.83;96463.25;5064519;28;20701;-31
2022/11/04 00:51:22;;;;;;;4.30;3.60;;;;;;;22.14;60.86;96470.91;5059979;28;20722;-31
2022/11/04 00:53:48;;;;;;;3.80;3.50;;;;;;;22.19;60.90;96482.91;5056092;28;20204;-31
2022/11/04 00:56:15;;;;;;;3.47;3.17;;;;;;;22.19;60.91;96493.13;5066972;28;20227;-31
2022/11/04 00:58:42;;;;;;;3.77;3.40;;;;;;;22.19;60.85;96502.50;5056066;28;20201;-31
2022/11/04 01:01:09;;;;;;;4.77;3.30;;;;;;;22.19;60.91;96495.69;5058401;28;20244;-31
2022/11/04 01:03:36;;;;;;;4.73;3.80;;;;;;;22.19;60.89;96505.94;5057337;28;20193;-31
2022/11/04 01:06:02;;;;;;;3.33;3.03;;;;;;;22.20;61.00;96522.16;5063608;28;20204;-31
2022/11/04 01:08:29;;;;;;;4.07;3.60;;;;;;;22.11;61.36;96510.09;5054914;28;20215;-31
2022/11/04 01:10:55;;;;;;;3.43;3.13;;;;;;;22.14;60.94;96516.97;5055150;28;20698;-31
2022/11/04 01:13:22;;;;;;;3.50;3.20;;;;;;;22.19;60.87;96535.78;5067240;28;20197;-31
2022/11/04 01:15:48;;;;;;;3.63;3.23;;;;;;;22.20;61.18;96534.94;5052654;28;20215;-31
2022/11/04 01:18:15;;;;;;;4.37;3.87;;;;;;;22.19;61.05;96534.09;5055076;28;20201;-31
2022/11/04 01:20:41;;;;;;;3.50;3.20;;;;;;;22.20;61.65;96534.94;5056388;28;20217;-31
2022/11/04 01:23:08;;;;;;;3.77;3.37;;;;;;;22.18;60.89;96529.81;5055185;28;20212;-31
2022/11/04 01:25:39;;;;;;;4.50;3.60;;;;;;;22.19;60.88;96536.66;5052010;28;20557;-31
2022/11/04 01:28:06;;;;;;;3.80;3.30;;;;;;;22.16;60.92;96531.50;5060810;28;20664;-31
2022/11/04 01:30:33;;;;;;;4.07;3.67;;;;;;;22.18;60.93;96534.94;5066820;28;20260;-31
2022/11/04 01:32:59;;;;;;;3.23;2.93;;;;;;;22.20;60.89;96540.06;5052350;28;20204;-31
2022/11/04 01:35:26;;;;;;;3.53;3.20;;;;;;;22.20;61.23;96538.34;5057275;28;20578;-31
2022/11/04 01:37:52;;;;;;;3.50;3.20;;;;;;;22.19;61.30;96531.53;5065291;28;20217;-31
2022/11/04 01:40:19;;;;;;;3.33;3.03;;;;;;;22.20;61.15;96532.41;5051886;28;20232;-31
2022/11/04 01:42:45;;;;;;;3.20;2.90;;;;;;;22.18;61.01;96522.13;5053854;28;20208;-31
2022/11/04 01:45:13;;;;;;;4.10;3.37;;;;;;;22.20;61.02;96529.84;5055835;28;20582;-31
2022/11/04 01:47:42;;;;;;;5.67;3.63;;;;;;;22.14;61.07;96524.66;5068441;28;20197;-31
2022/11/04 01:50:11;;;;;;;3.47;3.13;;;;;;;22.19;61.06;96544.31;5043602;28;20617;-31
2022/11/04 01:52:47;;;;;;;3.80;3.43;;;;;;;22.19;60.99;96549.44;5055209;28;20205;-31
2022/11/04 01:55:22;;;;;;;3.40;3.10;;;;;;;22.19;61.03;96538.34;5057668;28;20199;-31
2022/11/04 01:57:49;;;;;;;4.17;3.67;;;;;;;22.19;61.12;96538.34;5067876;28;20212;-31
2022/11/04 02:00:16;;;;;;;5.73;3.37;;;;;;;22.15;61.25;96534.03;5052849;28;20208;-31
2022/11/04 02:03:16;;;;;;;3.40;3.10;;;;;;;22.19;60.83;96530.66;5058031;28;20198;-31
2022/11/04 02:05:43;;;;;;;3.70;3.40;;;;;;;22.16;61.06;96520.38;5058817;28;20211;-31
2022/11/04 02:08:09;;;;;;;3.40;3.10;;;;;;;22.19;61.11;96522.97;5050999;28;20197;-31
2022/11/04 02:10:36;;;;;;;3.60;3.30;;;;;;;22.20;61.05;96529.84;5048580;28;20224;-31
2022/11/04 02:13:03;;;;;;;3.13;2.93;;;;;;;22.17;61.08;96522.13;5057417;28;20594;-31
2022/11/04 02:15:34;;;;;;;3.50;3.20;;;;;;;22.20;61.10;96523.00;5062498;28;20216;-31
2022/11/04 02:18:36;;;;;;;3.40;3.10;;;;;;;22.19;61.09;96523.84;5054214;28;20232;-31
2022/11/04 02:21:11;;;;;;;3.47;3.13;;;;;;;22.20;60.81;96524.72;5052930;28;20220;-31
2022/11/04 02:23:47;;;;;;;3.60;3.30;;;;;;;22.20;60.98;96530.66;5048917;28;20193;-31
2022/11/04 02:26:50;;;;;;;3.53;3.23;;;;;;;22.19;60.90;96525.53;5053820;28;20208;-31
2022/11/04 02:29:31;;;;;;;3.30;3.00;;;;;;;22.20;61.01;96524.72;5052517;28;20208;-31
2022/11/04 02:32:10;;;;;;;3.47;3.17;;;;;;;22.20;60.79;96529.84;5043611;28;20217;-31
2022/11/04 02:34:57;;;;;;;3.93;2.97;;;;;;;22.19;61.09;96523.84;5053297;28;20578;-31
2022/11/04 02:37:29;;;;;;;3.30;3.00;;;;;;;22.20;61.06;96524.72;5044038;28;20699;-31
2022/11/04 02:40:43;;;;;;;3.40;3.10;;;;;;;22.20;61.07;96525.56;5048052;28;20669;-31
2022/11/04 02:43:37;;;;;;;3.20;2.90;;;;;;;22.19;61.11;96523.84;5083465;28;20418;-31
2022/11/04 02:46:10;;;;;;;3.47;3.17;;;;;;;22.20;61.05;96529.84;5090368;28;20211;-31
2022/11/04 02:48:56;;;;;;;3.47;3.17;;;;;;;22.16;61.09;96526.38;5057657;28;20203;-31
2022/11/04 02:51:45;;;;;;;3.83;3.30;;;;;;;22.19;61.17;96534.09;5049762;28;20224;-31
2022/11/04 02:54:23;;;;;;;3.27;2.97;;;;;;;22.20;61.18;96537.50;5052107;28;20197;-31
2022/11/04 02:56:50;;;;;;;3.40;3.10;;;;;;;22.18;61.06;96534.94;5055963;28;20213;-31
2022/11/04 02:59:30;;;;;;;3.47;3.17;;;;;;;22.15;61.12;96523.78;5047652;28;20567;-31
2022/11/04 03:01:57;;;;;;;2.93;2.63;;;;;;;22.20;61.09;96529.84;5055879;28;20227;-31
2022/11/04 03:04:29;;;;;;;3.60;3.30;;;;;;;22.20;61.16;96532.41;5062111;28;20242;-31
2022/11/04 03:06:56;;;;;;;3.30;3.00;;;;;;;22.17;61.17;96530.63;5054692;28;20570;-31
2022/11/04 03:09:22;;;;;;;3.40;3.10;;;;;;;22.14;61.28;96520.38;5041299;28;20208;-31
2022/11/04 03:11:51;;;;;;;3.27;2.97;;;;;;;22.18;61.17;96523.84;5045732;28;20231;-31
2022/11/04 03:14:19;;;;;;;3.40;3.10;;;;;;;22.09;61.02;96510.94;5051985;28;20196;-31
2022/11/04 03:16:49;;;;;;;3.20;2.90;;;;;;;22.19;61.06;96533.22;5035031;28;20224;-31
2022/11/04 03:19:39;;;;;;;3.40;3.10;;;;;;;22.19;61.07;96528.97;5032501;28;20209;-31
2022/11/04 03:22:11;;;;;;;3.00;2.70;;;;;;;21.97;61.18;96487.78;5058967;28;20227;-31
2022/11/04 03:24:38;;;;;;;3.30;3.00;;;;;;;22.19;61.15;96528.97;5031878;28;20208;-31
2022/11/04 03:27:11;;;;;;;3.30;3.00;;;;;;;22.09;61.17;96510.94;5035400;28;20201;-31
2022/11/04 03:30:03;;;;;;;3.43;3.10;;;;;;;22.20;61.19;96534.94;5031491;28;20205;-31
2022/11/04 03:32:39;;;;;;;3.07;2.60;;;;;;;22.20;61.06;96537.50;5046548;28;20454;-31
2022/11/04 03:35:05;;;;;;;3.07;2.77;;;;;;;22.19;61.16;96539.19;5053849;28;20208;-31
2022/11/04 03:37:32;;;;;;;3.60;2.90;;;;;;;22.17;61.20;96534.91;5047655;28;20588;-31
2022/11/04 03:39:58;;;;;;;3.23;2.93;;;;;;;22.19;61.14;96538.34;5034797;28;20211;-31
2022/11/04 03:42:25;;;;;;;2.80;2.60;;;;;;;22.20;61.22;96545.19;5048283;28;20212;-31
2022/11/04 03:44:53;;;;;;;3.13;2.70;;;;;;;22.18;61.20;96536.63;5028363;28;20201;-31
2022/11/04 03:47:21;;;;;;;3.07;2.87;;;;;;;22.17;61.19;96529.81;5043296;28;20275;-31
2022/11/04 03:49:48;;;;;;;3.07;2.87;;;;;;;22.19;61.26;96526.41;5051072;28;20203;-31
2022/11/04 03:52:15;;;;;;;3.03;2.73;;;;;;;22.19;61.20;96533.22;5062306;28;20228;-31
2022/11/04 03:54:41;;;;;;;3.00;2.70;;;;;;;22.20;61.43;96534.94;5051299;28;20205;-31
2022/11/04 03:57:20;;;;;;;2.73;2.53;;;;;;;22.19;61.15;96530.66;5062514;28;20221;-31
2022/11/04 03:59:55;;;;;;;3.37;3.03;;;;;;;22.19;61.26;96543.44;5052190;28;20207;-31
2022/11/04 04:02:34;;;;;;;3.10;2.80;;;;;;;22.11;61.02;96528.00;5053698;28;20227;-31
2022/11/04 04:05:18;;;;;;;3.00;2.80;;;;;;;22.20;61.21;96545.19;5035754;28;20666;-31
2022/11/04 04:08:01;;;;;;;2.83;2.63;;;;;;;22.19;61.02;96539.19;5062015;28;20205;-31
2022/11/04 04:10:41;;;;;;;3.00;2.80;;;;;;;22.18;61.17;96540.06;5047211;28;20799;-31
2022/11/04 04:13:46;;;;;;;2.97;2.77;;;;;;;22.19;61.14;96546.00;5052699;28;20197;-31
2022/11/04 04:16:18;;;;;;;2.90;2.70;;;;;;;22.20;61.14;96542.63;5048759;28;20212;-31
2022/11/04 04:18:51;;;;;;;2.70;2.50;;;;;;;22.19;61.20;96538.34;5032439;28;20296;-31
2022/11/04 04:21:28;;;;;;;2.50;2.30;;;;;;;22.19;61.25;96549.44;5050298;28;20309;-31
2022/11/04 04:29:25;;;;;;;3.20;2.90;;;;;;;22.19;61.18;96525.53;5030861;28;20212;-31
2022/11/04 04:31:56;;;;;;;3.27;2.77;;;;;;;22.19;61.38;96526.41;5036544;28;20242;-31
2022/11/04 04:34:29;;;;;;;3.13;2.83;;;;;;;22.14;61.16;96506.75;5032407;28;20205;-31
2022/11/04 04:37:20;;;;;;;2.70;2.50;;;;;;;22.17;61.29;96514.44;5038906;28;20680;-31
2022/11/04 04:45:31;;;;;;;3.17;2.87;;;;;;;22.09;61.11;96493.03;5053180;28;20197;-31
2022/11/04 04:47:57;;;;;;;2.60;2.40;;;;;;;22.19;61.32;96516.16;5035622;28;20197;-31
2022/11/04 04:50:27;;;;;;;3.17;2.87;;;;;;;22.19;61.39;96526.41;5046790;28;20217;-31
2022/11/04 04:52:54;;;;;;;2.90;2.70;;;;;;;22.11;61.32;96504.97;5058097;28;20227;-31
2022/11/04 04:55:20;;;;;;;2.70;2.50;;;;;;;22.20;61.28;96519.59;5041369;28;20559;-31
2022/11/04 04:57:47;;;;;;;2.67;2.40;;;;;;;22.20;61.17;96517.03;5055926;28;20227;-31
2022/11/04 05:00:15;;;;;;;2.70;2.50;;;;;;;22.20;61.25;96506.81;5055768;28;20197;-31
2022/11/04 05:02:42;;;;;;;2.90;2.70;;;;;;;22.21;61.32;96508.50;5051427;28;20219;-31
2022/11/04 05:05:09;;;;;;;2.90;2.60;;;;;;;22.04;61.34;96481.88;5043925;28;20254;-31
2022/11/04 05:07:36;;;;;;;2.87;2.67;;;;;;;22.20;61.24;96504.25;5042540;28;20304;-31
2022/11/04 05:10:02;;;;;;;3.00;2.70;;;;;;;22.17;61.17;96499.09;5055139;28;20201;-31
2022/11/04 05:13:24;;;;;;;2.83;2.60;;;;;;;22.20;61.09;96511.91;5058993;28;20212;-31
2022/11/04 05:15:16;;;;;;;3.27;2.97;;;;;;;22.20;61.33;96511.91;5054710;28;20599;-31
2022/11/04 05:17:42;;;;;;;2.70;2.50;;;;;;;22.17;61.26;96504.22;5062487;28;20220;-31
2022/11/04 05:20:09;;;;;;;3.27;2.50;;;;;;;22.16;61.29;96505.91;5049821;28;20198;-31
2022/11/04 05:22:36;;;;;;;2.97;2.50;;;;;;;22.20;61.22;96507.63;5054822;28;20227;-31
2022/11/04 05:25:03;;;;;;;2.90;2.60;;;;;;;22.16;61.21;96505.91;5054923;28;20516;-31
2022/11/04 05:27:29;;;;;;;4.23;2.50;;;;;;;22.20;61.79;96522.16;5058101;28;20195;-31
2022/11/04 05:29:56;;;;;;;2.60;2.40;;;;;;;22.17;61.33;96527.25;5073947;28;20200;-31
2022/11/04 05:32:22;;;;;;;2.70;2.50;;;;;;;22.20;61.38;96557.97;5059724;28;20227;-31
2022/11/04 05:34:49;;;;;;;2.60;2.40;;;;;;;22.17;61.45;96535.75;5066219;28;20199;-31
2022/11/04 05:37:15;;;;;;;2.93;2.63;;;;;;;22.18;61.45;96537.50;5071531;28;20215;-31
2022/11/04 05:39:42;;;;;;;4.00;2.40;;;;;;;22.20;61.23;96550.31;5041923;28;20208;-31
2022/11/04 05:42:08;;;;;;;4.73;2.80;;;;;;;22.21;60.88;96567.38;5051037;28;20216;-31
2022/11/04 05:44:35;;;;;;;3.60;2.63;;;;;;;22.18;59.92;96563.09;5056623;28;20201;-31
2022/11/04 05:47:01;;;;;;;4.60;2.57;;;;;;;22.20;59.88;96573.34;5064047;28;20200;-31
2022/11/04 05:49:28;;;;;;;8.60;2.97;;;;;;;22.19;59.90;96566.47;5064250;28;20211;-31
2022/11/04 05:51:54;;;;;;;7.10;3.20;;;;;;;22.21;59.04;96588.72;5052685;28;20696;-31
2022/11/04 05:54:21;;;;;;;3.33;2.50;;;;;;;22.21;58.44;96572.50;5053479;28;20201;-31
2022/11/04 05:56:47;;;;;;;4.73;2.77;;;;;;;22.22;58.15;96571.63;5048465;28;20202;-31
2022/11/04 05:59:14;;;;;;;2.90;2.40;;;;;;;22.21;57.56;96569.94;5049152;28;20228;-31
2022/11/04 06:01:41;;;;;;;5.20;2.43;;;;;;;22.22;57.18;96577.63;5053872;28;20699;-31
2022/11/04 06:04:13;;;;;;;5.30;2.50;;;;;;;22.21;56.86;96581.03;5064176;28;20290;-31
2022/11/04 06:06:39;;;;;;;3.43;2.40;;;;;;;22.20;56.56;96581.84;5066039;28;20456;-31
2022/11/04 06:09:06;;;;;;;7.10;2.60;;;;;;;22.20;56.14;96586.13;5066873;28;20200;-31
2022/11/04 06:11:33;;;;;;;4.23;3.13;;;;;;;22.19;56.11;96577.59;5071189;28;20252;-31
2022/11/04 06:13:59;;;;;;;3.90;2.70;;;;;;;22.18;55.98;96572.47;5067385;28;20196;-31
2022/11/04 06:16:26;;;;;;;3.23;2.90;;;;;;;22.17;55.58;96561.34;5062091;28;20200;-31
2022/11/04 06:18:53;;;;;;;4.87;2.97;;;;;;;22.19;55.48;96546.88;5054609;28;20216;-31
2022/11/04 06:21:29;;;;;;;4.07;2.67;;;;;;;22.20;55.56;96575.91;5046294;28;20224;-31
2022/11/04 06:23:56;;;;;;;2.70;2.50;;;;;;;22.15;55.91;96577.53;5047860;28;20197;-31
2022/11/04 06:26:26;;;;;;;4.97;2.73;;;;;;;22.20;55.85;96586.13;5049666;28;20212;-31
2022/11/04 06:28:54;;;;;;;3.80;2.83;;;;;;;22.16;55.39;96572.44;5053209;28;20687;-31
2022/11/04 06:31:21;;;;;;;2.97;2.40;;;;;;;22.19;55.19;96567.34;5048411;28;20591;-31
2022/11/04 06:33:47;;;;;;;2.70;2.50;;;;;;;22.19;54.70;96566.47;5057016;28;20197;-31
2022/11/04 06:36:14;;;;;;;3.20;2.53;;;;;;;22.19;54.60;96589.50;5050041;28;20284;-31
2022/11/04 06:38:41;;;;;;;4.70;2.57;;;;;;;22.16;54.54;96592.91;5043725;28;20257;-31
2022/11/04 06:41:10;;;;;;;2.40;2.20;;;;;;;22.17;54.59;96586.94;5050456;28;20217;-31
2022/11/04 06:43:37;;;;;;;5.67;2.63;;;;;;;22.15;54.67;96573.28;5045731;28;20208;-31
2022/11/04 06:46:04;;;;;;;3.93;2.60;;;;;;;22.18;54.49;96581.00;5040456;28;20506;-31
2022/11/04 06:48:31;;;;;;;3.43;2.13;;;;;;;22.18;55.03;96575.00;5041381;28;20189;-32
2022/11/04 06:50:58;;;;;;;3.43;2.27;;;;;;;22.17;55.06;96571.59;5046516;28;20217;-31
2022/11/04 06:53:25;;;;;;;3.57;2.60;;;;;;;22.18;55.51;96567.34;5052588;28;20201;-31
2022/11/04 06:55:52;;;;;;;4.93;2.40;;;;;;;22.18;55.37;96577.56;5045371;28;20194;-31
2022/11/04 06:58:18;;;;;;;4.47;2.33;;;;;;;22.18;55.30;96569.91;5067117;28;20220;-31
2022/11/04 07:00:52;;;;;;;3.33;2.60;;;;;;;22.18;55.19;96564.78;5067873;28;20225;-31
2022/11/04 07:03:19;;;;;;;2.20;2.00;;;;;;;22.17;55.81;96561.34;5054351;28;20555;-31
2022/11/04 07:05:45;;;;;;;4.17;1.83;;;;;;;22.17;55.09;96552.84;5060126;28;20211;-31
2022/11/04 07:08:12;;;;;;;2.80;2.20;;;;;;;22.18;54.63;96557.09;5056461;28;20200;-31
2022/11/04 07:10:38;;;;;;;3.93;2.60;;;;;;;22.18;54.48;96567.34;5040745;28;20228;-31
2022/11/04 07:13:05;;;;;;;5.43;2.07;;;;;;;22.13;55.31;96558.72;5066646;28;20205;-31
2022/11/04 07:15:32;;;;;;;6.80;2.37;;;;;;;22.17;55.89;96563.91;5050938;28;20215;-31
2022/11/04 07:17:58;;;;;;;4.50;2.40;;;;;;;22.13;55.50;96557.03;5055609;28;20217;-31
2022/11/04 07:20:25;;;;;;;3.17;2.57;;;;;;;22.18;55.83;96567.34;5050043;28;20260;-31
2022/11/04 07:22:53;;;;;;;4.70;2.10;;;;;;;22.08;56.02;96534.81;5053885;28;20205;-31
2022/11/04 07:25:19;;;;;;;3.47;2.40;;;;;;;22.18;56.07;96547.72;5052757;28;20204;-31
2022/11/04 07:27:47;;;;;;;2.40;2.00;;;;;;;22.20;56.19;96550.31;5050128;28;20207;-31
2022/11/04 07:30:13;;;;;;;3.80;2.30;;;;;;;22.19;56.32;96541.75;5047512;28;20202;-31
2022/11/04 07:32:40;;;;;;;5.10;2.00;;;;;;;22.19;56.37;96541.75;5043856;28;20271;-31
2022/11/04 07:35:07;;;;;;;2.50;1.90;;;;;;;22.20;56.30;96551.16;5045991;28;20205;-31
2022/11/04 07:37:33;;;;;;;2.77;2.20;;;;;;;22.21;56.39;96569.94;5044422;28;20201;-31
2022/11/04 07:40:00;;;;;;;3.50;1.97;;;;;;;22.18;56.48;96575.88;5044493;28;20201;-31
2022/11/04 07:42:26;;;;;;;2.70;2.10;;;;;;;22.23;56.51;96588.72;5044694;28;20618;-31
2022/11/04 07:44:53;;;;;;;3.07;2.13;;;;;;;22.20;56.53;96586.13;5047979;28;20201;-31
2022/11/04 07:47:19;;;;;;;4.10;2.20;;;;;;;22.15;56.38;96578.41;5040922;28;20205;-31
2022/11/04 07:49:46;;;;;;;2.63;2.10;;;;;;;22.21;56.32;96577.59;5045371;28;20201;-31
2022/11/04 07:52:13;;;;;;;2.97;2.30;;;;;;;22.23;56.50;96594.69;5050787;28;20217;-31
2022/11/04 07:54:39;;;;;;;3.27;2.07;;;;;;;22.19;56.62;96602.31;5042634;28;20603;-31
2022/11/04 07:57:06;;;;;;;5.13;2.30;;;;;;;22.25;56.68;96617.75;5057269;28;20201;-31
2022/11/04 07:59:32;;;;;;;3.30;2.20;;;;;;;22.25;56.86;96621.16;5057057;28;20228;-31
2022/11/04 08:01:59;;;;;;;2.30;2.10;;;;;;;22.26;56.82;96634.84;5053506;28;20232;-31
2022/11/04 08:04:26;;;;;;;2.83;2.10;;;;;;;22.25;56.96;96640.78;5049621;28;20277;-31
2022/11/04 08:06:52;;;;;;;3.17;2.10;;;;;;;22.23;57.02;96642.47;5051732;28;20207;-31
2022/11/04 08:09:19;;;;;;;4.47;2.00;;;;;;;22.28;57.00;96648.50;5054541;28;20202;-31
2022/11/04 08:11:46;;;;;;;3.27;1.93;;;;;;;22.27;57.16;96641.66;5054048;28;20255;-31
2022/11/04 08:14:12;;;;;;;4.07;1.90;;;;;;;22.27;57.28;96639.97;5051368;28;20213;-31
2022/11/04 08:16:39;;;;;;;4.30;2.20;;;;;;;22.25;57.23;96633.97;5058404;28;20681;-31
2022/11/04 08:19:05;;;;;;;2.90;2.13;;;;;;;22.28;57.42;96635.69;5051622;28;20591;-31
2022/11/04 08:21:32;;;;;;;2.90;2.20;;;;;;;22.29;57.31;96634.88;5053461;28;20225;-31
2022/11/04 08:23:59;;;;;;;3.83;2.00;;;;;;;22.30;57.22;96644.25;5056309;28;20205;-31
2022/11/04 08:26:25;;;;;;;4.50;2.33;;;;;;;22.29;57.40;96643.41;5042125;28;20197;-31
2022/11/04 08:28:52;;;;;;;3.07;2.37;;;;;;;22.30;57.28;96655.38;5061874;28;20238;-31
2022/11/04 08:31:24;;;;;;;4.10;2.13;;;;;;;22.30;57.54;96657.06;5060157;28;20303;-31
2022/11/04 08:33:51;;;;;;;3.10;2.03;;;;;;;22.29;57.67;96658.75;5050540;28;20355;-31
2022/11/04 08:36:26;;;;;;;2.37;2.10;;;;;;;22.30;57.71;96657.94;5050745;28;21840;-31
2022/11/04 08:38:52;;;;;;;4.17;2.10;;;;;;;22.31;57.61;96651.97;5059282;28;20226;-31
2022/11/04 08:41:21;;;;;;;4.33;1.90;;;;;;;22.31;57.68;96644.28;5057822;28;20606;-31
2022/11/04 08:43:47;;;;;;;2.33;2.13;;;;;;;22.31;57.98;96640.84;5066495;28;20205;-31
2022/11/04 08:46:14;;;;;;;2.93;2.10;;;;;;;22.32;57.53;96629.78;5057780;28;20290;-31
2022/11/04 08:48:41;;;;;;;6.47;2.20;;;;;;;22.33;57.50;96636.63;5046667;28;20201;-31
2022/11/04 08:51:13;;;;;;;3.80;2.20;;;;;;;22.32;57.58;96633.19;5049939;28;20224;-31
2022/11/04 08:53:39;;;;;;;3.40;2.13;;;;;;;22.33;57.81;96632.38;5052811;28;20441;-30
2022/11/04 08:56:15;;;;;;;4.60;2.13;;;;;;;22.33;57.77;96616.16;5063928;28;20663;-31
2022/11/04 08:58:41;;;;;;;3.37;2.03;;;;;;;22.33;57.61;96603.34;5050320;28;20229;-31
2022/11/04 09:01:09;;;;;;;3.13;2.10;;;;;;;22.29;57.78;96591.38;5054121;28;20224;-31
2022/11/04 09:03:37;;;;;;;5.03;2.13;;;;;;;22.33;57.67;96604.22;5050720;28;20381;-31
2022/11/04 09:06:05;;;;;;;2.60;2.00;;;;;;;22.34;57.68;96599.94;5047966;28;20223;-31
2022/11/04 09:08:32;;;;;;;3.07;1.97;;;;;;;22.33;57.71;96593.09;5045094;28;20200;-31
2022/11/04 09:10:58;;;;;;;3.53;2.10;;;;;;;22.34;57.77;96597.38;5055308;28;20217;-31
2022/11/04 09:13:25;;;;;;;3.07;2.17;;;;;;;22.33;57.83;96600.78;5052118;28;20193;-31
2022/11/04 09:15:51;;;;;;;3.00;2.00;;;;;;;22.34;57.86;96594.81;5048976;28;20219;-31
2022/11/04 09:18:18;;;;;;;3.83;1.93;;;;;;;22.32;57.90;96602.47;5047276;28;20228;-31
2022/11/04 09:20:44;;;;;;;1.97;1.80;;;;;;;22.33;57.86;96599.09;5053770;28;20231;-31
2022/11/04 09:23:11;;;;;;;2.03;1.80;;;;;;;22.32;58.11;96597.34;5065519;28;20207;-31
2022/11/04 09:25:38;;;;;;;2.23;2.03;;;;;;;22.32;57.61;96593.97;5049780;28;20202;-31
2022/11/04 09:28:04;;;;;;;2.40;2.10;;;;;;;22.32;57.92;96599.91;5054760;28;20209;-31
2022/11/04 09:30:31;;;;;;;2.97;2.30;;;;;;;22.33;58.08;96595.66;5045426;28;20237;-31
2022/11/04 09:32:58;;;;;;;4.63;2.20;;;;;;;22.30;58.09;96583.69;5051377;28;20687;-31
2022/11/04 09:35:26;;;;;;;2.60;1.90;;;;;;;22.30;58.05;96587.94;5046962;28;20216;-31
2022/11/04 09:37:53;;;;;;;3.43;2.10;;;;;;;22.33;58.09;96598.22;5045834;28;20264;-31
2022/11/04 09:40:22;;;;;;;2.93;2.07;;;;;;;22.32;58.12;96602.47;5045508;28;20222;-31
2022/11/04 09:43:06;;;;;;;2.47;2.03;;;;;;;22.33;58.08;96590.53;5043393;28;20469;-31
2022/11/04 09:45:33;;;;;;;2.53;1.80;;;;;;;22.33;57.92;96585.44;5058183;28;20330;-31
2022/11/04 09:48:05;;;;;;;3.43;2.07;;;;;;;22.32;58.08;96581.16;5049910;28;20581;-31
2022/11/04 09:50:40;;;;;;;3.53;2.17;;;;;;;22.31;57.94;96577.72;5058521;28;20471;-31
2022/11/04 09:53:16;;;;;;;2.87;2.00;;;;;;;22.30;58.13;96570.03;5031924;28;20213;-31
2022/11/04 09:56:02;;;;;;;3.47;2.10;;;;;;;22.32;58.22;96576.88;5044439;28;20203;-31
2022/11/04 09:58:32;;;;;;;2.07;1.83;;;;;;;22.32;58.09;96583.72;5049334;28;20221;-31
2022/11/04 10:01:16;;;;;;;2.00;1.80;;;;;;;22.31;58.26;96585.41;5048167;28;20221;-31
2022/11/04 10:04:05;;;;;;;2.37;1.80;;;;;;;22.32;58.25;96587.13;5039435;28;20201;-31
2022/11/04 10:06:34;;;;;;;4.03;2.20;;;;;;;22.32;58.22;96588.84;5042451;28;20198;-31
2022/11/04 10:09:31;;;;;;;2.80;2.00;;;;;;;22.31;58.43;96590.53;5039528;28;20222;-31
2022/11/04 10:12:42;;;;;;;2.13;1.80;;;;;;;22.31;58.35;96592.22;5047313;28;20757;-31
2022/11/04 10:15:15;;;;;;;2.70;2.10;;;;;;;22.28;58.33;96592.19;5047253;28;20216;-31
2022/11/04 10:18:18;;;;;;;2.07;1.90;;;;;;;22.20;58.38;96578.47;5039553;28;20202;-31
2022/11/04 10:20:53;;;;;;;2.03;1.90;;;;;;;22.30;58.51;96593.94;5040949;28;20229;-31
2022/11/04 10:23:20;;;;;;;1.80;1.70;;;;;;;22.30;58.42;96599.06;5052115;28;20717;-31
2022/11/04 10:26:00;;;;;;;2.23;1.90;;;;;;;22.31;58.39;96602.47;5046402;28;20620;-31
2022/11/04 10:28:32;;;;;;;1.83;1.73;;;;;;;22.22;58.47;96585.31;5044841;28;20239;-31
2022/11/04 10:30:58;;;;;;;1.63;1.53;;;;;;;22.31;58.34;96595.66;5043334;28;20227;-31
2022/11/04 10:33:31;;;;;;;2.13;1.97;;;;;;;22.22;58.37;96572.50;5043742;28;20202;-31
2022/11/04 10:36:11;;;;;;;2.20;2.00;;;;;;;22.25;58.67;96564.00;5034675;28;20219;-31
2022/11/04 10:38:40;;;;;;;2.63;2.00;;;;;;;22.30;58.39;96567.47;5046973;28;20224;-31
2022/11/04 10:41:25;;;;;;;1.80;1.70;;;;;;;22.30;58.37;96564.91;5042391;28;20220;-31
2022/11/04 10:43:55;;;;;;;1.70;1.60;;;;;;;22.29;58.46;96563.22;5041895;28;20221;-31
2022/11/04 10:46:40;;;;;;;2.93;1.80;;;;;;;22.30;58.28;96568.34;5050085;28;20205;-31
2022/11/04 10:49:25;;;;;;;1.80;1.70;;;;;;;22.30;58.37;96585.38;5047427;28;20586;-31
2022/11/04 10:51:52;;;;;;;2.00;1.80;;;;;;;22.31;58.47;96579.41;5044475;28;20217;-31
2022/11/04 10:54:19;;;;;;;3.43;1.90;;;;;;;22.27;58.57;96555.50;5044643;28;20622;-31
2022/11/04 10:56:49;;;;;;;2.13;1.70;;;;;;;22.31;58.51;96561.50;5022851;28;20205;-31
2022/11/04 10:59:48;;;;;;;1.80;1.70;;;;;;;22.30;58.68;96572.59;5049518;28;20216;-31
2022/11/04 11:02:15;;;;;;;2.80;2.10;;;;;;;22.28;58.68;96556.34;5045395;28;20232;-31
2022/11/04 11:04:46;;;;;;;2.10;1.80;;;;;;;22.30;58.43;96554.69;5042387;28;20586;-31
2022/11/04 11:07:17;;;;;;;1.77;1.63;;;;;;;22.24;58.78;96547.81;5036279;28;20216;-31
2022/11/04 11:09:47;;;;;;;1.90;1.73;;;;;;;22.28;58.74;96543.56;5029599;28;20193;-31
2022/11/04 11:12:27;;;;;;;2.30;1.70;;;;;;;22.27;58.80;96545.28;5053407;28;20216;-31
2022/11/04 11:15:26;;;;;;;4.60;1.83;;;;;;;22.31;58.90;96551.25;5043577;28;20217;-31
2022/11/04 11:17:58;;;;;;;1.73;1.63;;;;;;;22.30;58.83;96536.75;5047620;28;20201;-31
2022/11/04 11:20:26;;;;;;;4.80;1.90;;;;;;;22.31;58.77;96543.59;5050062;28;20228;-31
2022/11/04 11:22:53;;;;;;;2.10;1.90;;;;;;;21.63;59.25;96414.88;5044167;28;20705;-31
2022/11/04 11:25:27;;;;;;;1.57;1.47;;;;;;;22.27;58.85;96521.38;5052768;28;20207;-31
2022/11/04 11:27:55;;;;;;;4.30;2.03;;;;;;;22.17;57.69;96504.22;5053656;28;20247;-32
2022/11/04 11:30:30;;;;;;;4.03;2.07;;;;;;;22.26;56.48;96517.09;5033620;28;20228;-31
2022/11/04 11:33:05;;;;;;;3.13;2.00;;;;;;;22.19;56.46;96507.63;5031175;28;20205;-31
2022/11/04 11:35:41;;;;;;;3.90;2.10;;;;;;;22.29;56.85;96510.28;5032614;28;20201;-31
2022/11/04 11:38:22;;;;;;;3.77;1.93;;;;;;;22.28;57.20;96511.16;5049001;28;20697;-31
2022/11/04 11:40:51;;;;;;;2.60;2.07;;;;;;;22.29;57.57;96522.25;5051533;28;20716;-31
2022/11/04 11:43:41;;;;;;;3.10;2.07;;;;;;;22.21;57.65;96511.94;5041639;28;20209;-31
2022/11/04 11:46:08;;;;;;;3.97;2.20;;;;;;;22.28;58.17;96523.94;5054399;28;20208;-31
2022/11/04 11:48:38;;;;;;;6.00;2.20;;;;;;;22.27;58.07;96529.91;5053995;28;20284;-31
2022/11/04 11:51:05;;;;;;;3.87;2.20;;;;;;;22.27;58.09;96536.72;5052456;28;20223;-31
2022/11/04 11:53:38;;;;;;;5.07;2.30;;;;;;;22.26;58.27;96538.41;5050074;28;20204;-31
2022/11/04 11:56:21;;;;;;;3.73;2.10;;;;;;;22.29;58.39;96550.41;5056622;28;20204;-31
2022/11/04 11:58:50;;;;;;;2.97;2.17;;;;;;;22.29;58.42;96547.84;5043865;28;20205;-31
2022/11/04 12:01:44;;;;;;;3.03;2.10;;;;;;;22.21;58.52;96544.34;5047328;28;20224;-31
2022/11/04 12:04:12;;;;;;;2.73;2.07;;;;;;;22.29;58.57;96552.97;5039683;28;20208;-31
2022/11/04 12:07:14;;;;;;;3.97;2.10;;;;;;;22.28;58.59;96554.66;5057131;28;20204;-31
2022/11/04 12:10:36;;;;;;;3.17;2.10;;;;;;;22.29;58.63;96558.09;5049935;28;20277;-31
2022/11/04 12:13:27;;;;;;;2.40;1.93;;;;;;;22.27;58.86;96555.50;5048818;28;20212;-31
2022/11/04 12:16:11;;;;;;;3.23;2.30;;;;;;;22.29;58.97;96560.66;5048837;28;20200;-31
2022/11/04 12:18:59;;;;;;;5.10;2.10;;;;;;;22.14;59.07;96542.56;5032441;28;20201;-31
2022/11/04 12:21:47;;;;;;;4.37;2.20;;;;;;;22.28;59.11;96554.66;5049433;28;20217;-31
2022/11/04 12:24:39;;;;;;;3.47;1.87;;;;;;;22.30;59.22;96567.47;5040083;28;20211;-31